sensor_id;sensor_type;location;lat;lon;timestamp;P1;durP1;ratioP1;P2;durP2;ratioP2
29954;SDS011;16812;51.168;6.840;2022-08-01T00:01:58;5.53;;;4.47;;
29954;SDS011;16812;51.168;6.840;2022-08-01T00:04:26;6.63;;;5.73;;
29954;SDS011;16812;51.168;6.840;2022-08-01T00:06:53;9.17;;;4.73;;
29954;SDS011;16812;51.168;6.840;2022-08-01T00:09:20;7.03;;;5.23;;
29954;SDS011;16812;51.168;6.840;2022-08-01T00:11:49;8.43;;;4.60;;
29954;SDS011;16812;51.168;6.840;2022-08-01T00:14:25;6.20;;;4.37;;
29954;SDS011;16812;51.168;6.840;2022-08-01T00:16:59;8.20;;;4.63;;
29954;SDS011;16812;51.168;6.840;2022-08-01T00:19:32;8.13;;;4.00;;
29954;SDS011;16812;51.168;6.840;2022-08-01T00:21:59;5.77;;;3.73;;
29954;SDS011;16812;51.168;6.840;2022-08-01T00:24:27;7.97;;;4.70;;
29954;SDS011;16812;51.168;6.840;2022-08-01T00:26:55;7.07;;;4.77;;
29954;SDS011;16812;51.168;6.840;2022-08-01T00:29:22;5.83;;;4.47;;
29954;SDS011;16812;51.168;6.840;2022-08-01T00:32:10;6.90;;;4.67;;
29954;SDS011;16812;51.168;6.840;2022-08-01T00:34:38;6.30;;;4.70;;
29954;SDS011;16812;51.168;6.840;2022-08-01T00:37:05;8.30;;;4.00;;
29954;SDS011;16812;51.168;6.840;2022-08-01T00:39:32;3.97;;;3.67;;
29954;SDS011;16812;51.168;6.840;2022-08-01T00:41:59;7.03;;;4.43;;
29954;SDS011;16812;51.168;6.840;2022-08-01T00:44:26;7.63;;;4.23;;
29954;SDS011;16812;51.168;6.840;2022-08-01T00:46:53;6.80;;;3.83;;
29954;SDS011;16812;51.168;6.840;2022-08-01T00:49:22;5.33;;;4.00;;
29954;SDS011;16812;51.168;6.840;2022-08-01T00:51:49;4.50;;;4.10;;
29954;SDS011;16812;51.168;6.840;2022-08-01T00:54:16;4.63;;;3.50;;
29954;SDS011;16812;51.168;6.840;2022-08-01T00:56:44;4.73;;;4.30;;
29954;SDS011;16812;51.168;6.840;2022-08-01T00:59:12;9.73;;;4.73;;
29954;SDS011;16812;51.168;6.840;2022-08-01T01:01:40;5.40;;;4.63;;
29954;SDS011;16812;51.168;6.840;2022-08-01T01:04:12;6.37;;;4.70;;
29954;SDS011;16812;51.168;6.840;2022-08-01T01:06:44;9.10;;;4.37;;
29954;SDS011;16812;51.168;6.840;2022-08-01T01:09:23;7.30;;;4.30;;
29954;SDS011;16812;51.168;6.840;2022-08-01T01:11:57;7.97;;;4.60;;
29954;SDS011;16812;51.168;6.840;2022-08-01T01:14:27;11.87;;;4.63;;
29954;SDS011;16812;51.168;6.840;2022-08-01T01:16:55;8.40;;;4.77;;
29954;SDS011;16812;51.168;6.840;2022-08-01T01:19:24;6.10;;;4.83;;
29954;SDS011;16812;51.168;6.840;2022-08-01T01:22:00;7.57;;;4.77;;
29954;SDS011;16812;51.168;6.840;2022-08-01T01:24:36;5.67;;;5.07;;
29954;SDS011;16812;51.168;6.840;2022-08-01T01:27:06;4.93;;;4.40;;
29954;SDS011;16812;51.168;6.840;2022-08-01T01:29:40;8.80;;;4.30;;
29954;SDS011;16812;51.168;6.840;2022-08-01T01:32:28;6.57;;;4.47;;
29954;SDS011;16812;51.168;6.840;2022-08-01T01:34:56;5.60;;;4.10;;
29954;SDS011;16812;51.168;6.840;2022-08-01T01:37:25;7.93;;;4.83;;
29954;SDS011;16812;51.168;6.840;2022-08-01T01:39:53;5.50;;;4.70;;
29954;SDS011;16812;51.168;6.840;2022-08-01T01:42:21;8.77;;;5.87;;
29954;SDS011;16812;51.168;6.840;2022-08-01T01:44:50;16.53;;;5.43;;
29954;SDS011;16812;51.168;6.840;2022-08-01T01:47:18;6.33;;;5.17;;
29954;SDS011;16812;51.168;6.840;2022-08-01T01:49:46;7.77;;;5.17;;
29954;SDS011;16812;51.168;6.840;2022-08-01T01:52:15;6.97;;;4.80;;
29954;SDS011;16812;51.168;6.840;2022-08-01T01:54:44;7.27;;;5.00;;
29954;SDS011;16812;51.168;6.840;2022-08-01T01:57:12;6.30;;;4.90;;
29954;SDS011;16812;51.168;6.840;2022-08-01T01:59:39;9.90;;;5.77;;
29954;SDS011;16812;51.168;6.840;2022-08-01T02:02:09;7.50;;;4.90;;
29954;SDS011;16812;51.168;6.840;2022-08-01T02:04:38;8.17;;;4.97;;
29954;SDS011;16812;51.168;6.840;2022-08-01T02:07:06;5.43;;;4.40;;
29954;SDS011;16812;51.168;6.840;2022-08-01T02:09:34;8.60;;;5.73;;
29954;SDS011;16812;51.168;6.840;2022-08-01T02:12:02;8.80;;;4.70;;
29954;SDS011;16812;51.168;6.840;2022-08-01T02:14:34;6.10;;;5.50;;
29954;SDS011;16812;51.168;6.840;2022-08-01T02:17:02;10.60;;;5.33;;
29954;SDS011;16812;51.168;6.840;2022-08-01T02:19:31;8.77;;;4.90;;
29954;SDS011;16812;51.168;6.840;2022-08-01T02:22:04;11.70;;;5.77;;
29954;SDS011;16812;51.168;6.840;2022-08-01T02:24:35;7.60;;;5.30;;
29954;SDS011;16812;51.168;6.840;2022-08-01T02:27:05;12.57;;;5.50;;
29954;SDS011;16812;51.168;6.840;2022-08-01T02:29:36;9.30;;;5.13;;
29954;SDS011;16812;51.168;6.840;2022-08-01T02:32:04;7.87;;;5.30;;
29954;SDS011;16812;51.168;6.840;2022-08-01T02:34:35;6.23;;;5.63;;
29954;SDS011;16812;51.168;6.840;2022-08-01T02:37:02;7.83;;;5.50;;
29954;SDS011;16812;51.168;6.840;2022-08-01T02:39:30;11.63;;;6.10;;
29954;SDS011;16812;51.168;6.840;2022-08-01T02:41:58;7.70;;;5.70;;
29954;SDS011;16812;51.168;6.840;2022-08-01T02:44:27;6.57;;;4.80;;
29954;SDS011;16812;51.168;6.840;2022-08-01T02:46:56;10.63;;;5.10;;
29954;SDS011;16812;51.168;6.840;2022-08-01T02:49:24;5.90;;;5.27;;
29954;SDS011;16812;51.168;6.840;2022-08-01T02:51:54;5.00;;;4.50;;
29954;SDS011;16812;51.168;6.840;2022-08-01T02:54:22;6.77;;;4.73;;
29954;SDS011;16812;51.168;6.840;2022-08-01T02:56:49;8.80;;;5.77;;
29954;SDS011;16812;51.168;6.840;2022-08-01T02:59:18;5.63;;;4.60;;
29954;SDS011;16812;51.168;6.840;2022-08-01T03:01:47;6.53;;;4.53;;
29954;SDS011;16812;51.168;6.840;2022-08-01T03:04:15;5.80;;;5.00;;
29954;SDS011;16812;51.168;6.840;2022-08-01T03:06:43;8.97;;;4.60;;
29954;SDS011;16812;51.168;6.840;2022-08-01T03:09:12;9.70;;;5.10;;
29954;SDS011;16812;51.168;6.840;2022-08-01T03:11:42;7.27;;;4.63;;
29954;SDS011;16812;51.168;6.840;2022-08-01T03:14:10;6.30;;;4.40;;
29954;SDS011;16812;51.168;6.840;2022-08-01T03:16:38;7.37;;;5.20;;
29954;SDS011;16812;51.168;6.840;2022-08-01T03:19:06;8.23;;;5.30;;
29954;SDS011;16812;51.168;6.840;2022-08-01T03:21:34;6.00;;;5.00;;
29954;SDS011;16812;51.168;6.840;2022-08-01T03:24:02;6.60;;;4.80;;
29954;SDS011;16812;51.168;6.840;2022-08-01T03:26:33;7.40;;;5.13;;
29954;SDS011;16812;51.168;6.840;2022-08-01T03:29:02;5.00;;;4.50;;
29954;SDS011;16812;51.168;6.840;2022-08-01T03:31:30;7.90;;;5.20;;
29954;SDS011;16812;51.168;6.840;2022-08-01T03:33:58;6.17;;;5.57;;
29954;SDS011;16812;51.168;6.840;2022-08-01T03:36:31;9.50;;;5.20;;
29954;SDS011;16812;51.168;6.840;2022-08-01T03:39:01;8.50;;;4.67;;
29954;SDS011;16812;51.168;6.840;2022-08-01T03:41:30;9.33;;;5.40;;
29954;SDS011;16812;51.168;6.840;2022-08-01T03:44:01;6.33;;;4.90;;
29954;SDS011;16812;51.168;6.840;2022-08-01T03:46:33;8.43;;;5.87;;
29954;SDS011;16812;51.168;6.840;2022-08-01T03:49:03;10.73;;;5.77;;
29954;SDS011;16812;51.168;6.840;2022-08-01T03:51:31;6.93;;;4.77;;
29954;SDS011;16812;51.168;6.840;2022-08-01T03:53:59;7.53;;;6.10;;
29954;SDS011;16812;51.168;6.840;2022-08-01T03:56:27;11.37;;;6.17;;
29954;SDS011;16812;51.168;6.840;2022-08-01T03:58:55;8.80;;;6.43;;
29954;SDS011;16812;51.168;6.840;2022-08-01T04:01:23;6.93;;;6.23;;
29954;SDS011;16812;51.168;6.840;2022-08-01T04:03:51;8.90;;;6.30;;
29954;SDS011;16812;51.168;6.840;2022-08-01T04:06:18;10.53;;;5.97;;
29954;SDS011;16812;51.168;6.840;2022-08-01T04:08:45;10.07;;;6.20;;
29954;SDS011;16812;51.168;6.840;2022-08-01T04:11:12;10.27;;;7.10;;
29954;SDS011;16812;51.168;6.840;2022-08-01T04:13:39;10.93;;;6.67;;
29954;SDS011;16812;51.168;6.840;2022-08-01T04:16:09;11.47;;;6.17;;
29954;SDS011;16812;51.168;6.840;2022-08-01T04:18:38;11.87;;;8.27;;
29954;SDS011;16812;51.168;6.840;2022-08-01T04:21:05;12.80;;;8.57;;
29954;SDS011;16812;51.168;6.840;2022-08-01T04:23:32;17.67;;;10.67;;
29954;SDS011;16812;51.168;6.840;2022-08-01T04:26:01;13.40;;;8.43;;
29954;SDS011;16812;51.168;6.840;2022-08-01T04:28:29;17.27;;;10.07;;
29954;SDS011;16812;51.168;6.840;2022-08-01T04:30:57;14.50;;;9.57;;
29954;SDS011;16812;51.168;6.840;2022-08-01T04:33:27;19.00;;;10.97;;
29954;SDS011;16812;51.168;6.840;2022-08-01T04:35:58;14.27;;;10.27;;
29954;SDS011;16812;51.168;6.840;2022-08-01T04:38:29;11.20;;;8.50;;
29954;SDS011;16812;51.168;6.840;2022-08-01T04:40:57;14.00;;;10.90;;
29954;SDS011;16812;51.168;6.840;2022-08-01T04:43:34;12.97;;;9.57;;
29954;SDS011;16812;51.168;6.840;2022-08-01T04:46:02;15.47;;;10.50;;
29954;SDS011;16812;51.168;6.840;2022-08-01T04:48:29;17.17;;;10.40;;
29954;SDS011;16812;51.168;6.840;2022-08-01T04:50:59;17.87;;;11.33;;
29954;SDS011;16812;51.168;6.840;2022-08-01T04:53:27;19.10;;;12.00;;
29954;SDS011;16812;51.168;6.840;2022-08-01T04:55:54;17.23;;;11.10;;
29954;SDS011;16812;51.168;6.840;2022-08-01T04:58:21;14.23;;;11.23;;
29954;SDS011;16812;51.168;6.840;2022-08-01T05:00:48;21.90;;;12.53;;
29954;SDS011;16812;51.168;6.840;2022-08-01T05:03:16;15.00;;;11.10;;
29954;SDS011;16812;51.168;6.840;2022-08-01T05:05:43;17.77;;;12.90;;
29954;SDS011;16812;51.168;6.840;2022-08-01T05:08:11;26.07;;;14.50;;
29954;SDS011;16812;51.168;6.840;2022-08-01T05:10:38;20.20;;;13.40;;
29954;SDS011;16812;51.168;6.840;2022-08-01T05:13:06;24.00;;;14.30;;
29954;SDS011;16812;51.168;6.840;2022-08-01T05:15:34;23.30;;;13.47;;
29954;SDS011;16812;51.168;6.840;2022-08-01T05:18:01;20.33;;;12.67;;
29954;SDS011;16812;51.168;6.840;2022-08-01T05:20:28;17.50;;;13.60;;
29954;SDS011;16812;51.168;6.840;2022-08-01T05:22:55;22.80;;;14.50;;
29954;SDS011;16812;51.168;6.840;2022-08-01T05:25:24;22.07;;;13.70;;
29954;SDS011;16812;51.168;6.840;2022-08-01T05:28:11;17.87;;;13.07;;
29954;SDS011;16812;51.168;6.840;2022-08-01T05:30:44;19.37;;;12.47;;
29954;SDS011;16812;51.168;6.840;2022-08-01T05:33:11;16.40;;;12.50;;
29954;SDS011;16812;51.168;6.840;2022-08-01T05:35:38;20.70;;;13.50;;
29954;SDS011;16812;51.168;6.840;2022-08-01T05:38:14;25.70;;;14.30;;
29954;SDS011;16812;51.168;6.840;2022-08-01T05:40:42;23.10;;;13.70;;
29954;SDS011;16812;51.168;6.840;2022-08-01T05:43:10;22.93;;;14.33;;
29954;SDS011;16812;51.168;6.840;2022-08-01T05:45:37;23.60;;;13.97;;
29954;SDS011;16812;51.168;6.840;2022-08-01T05:48:04;18.90;;;13.03;;
29954;SDS011;16812;51.168;6.840;2022-08-01T05:50:32;20.87;;;12.77;;
29954;SDS011;16812;51.168;6.840;2022-08-01T05:52:59;19.90;;;11.50;;
29954;SDS011;16812;51.168;6.840;2022-08-01T05:55:26;18.17;;;12.57;;
29954;SDS011;16812;51.168;6.840;2022-08-01T05:57:55;19.60;;;12.90;;
29954;SDS011;16812;51.168;6.840;2022-08-01T06:00:22;22.47;;;13.90;;
29954;SDS011;16812;51.168;6.840;2022-08-01T06:02:49;25.23;;;13.50;;
29954;SDS011;16812;51.168;6.840;2022-08-01T06:05:16;27.73;;;13.30;;
29954;SDS011;16812;51.168;6.840;2022-08-01T06:07:43;23.63;;;13.63;;
29954;SDS011;16812;51.168;6.840;2022-08-01T06:10:11;21.20;;;14.20;;
29954;SDS011;16812;51.168;6.840;2022-08-01T06:12:38;23.10;;;13.60;;
29954;SDS011;16812;51.168;6.840;2022-08-01T06:15:07;19.13;;;12.67;;
29954;SDS011;16812;51.168;6.840;2022-08-01T06:17:34;17.00;;;12.67;;
29954;SDS011;16812;51.168;6.840;2022-08-01T06:20:01;18.50;;;12.20;;
29954;SDS011;16812;51.168;6.840;2022-08-01T06:22:29;16.40;;;12.80;;
29954;SDS011;16812;51.168;6.840;2022-08-01T06:24:56;20.00;;;12.37;;
29954;SDS011;16812;51.168;6.840;2022-08-01T06:27:23;19.97;;;12.60;;
29954;SDS011;16812;51.168;6.840;2022-08-01T06:29:51;18.93;;;11.70;;
29954;SDS011;16812;51.168;6.840;2022-08-01T06:32:21;15.13;;;11.97;;
29954;SDS011;16812;51.168;6.840;2022-08-01T06:34:53;17.23;;;11.70;;
29954;SDS011;16812;51.168;6.840;2022-08-01T06:37:20;14.93;;;10.70;;
29954;SDS011;16812;51.168;6.840;2022-08-01T06:39:47;14.10;;;10.70;;
29954;SDS011;16812;51.168;6.840;2022-08-01T06:42:15;15.43;;;10.37;;
29954;SDS011;16812;51.168;6.840;2022-08-01T06:44:42;13.53;;;11.20;;
29954;SDS011;16812;51.168;6.840;2022-08-01T06:47:09;15.40;;;10.70;;
29954;SDS011;16812;51.168;6.840;2022-08-01T06:49:37;14.40;;;11.60;;
29954;SDS011;16812;51.168;6.840;2022-08-01T06:52:05;14.90;;;10.87;;
29954;SDS011;16812;51.168;6.840;2022-08-01T06:54:33;14.77;;;11.87;;
29954;SDS011;16812;51.168;6.840;2022-08-01T06:57:00;13.33;;;10.23;;
29954;SDS011;16812;51.168;6.840;2022-08-01T06:59:27;11.87;;;9.27;;
29954;SDS011;16812;51.168;6.840;2022-08-01T07:01:54;16.17;;;10.17;;
29954;SDS011;16812;51.168;6.840;2022-08-01T07:04:21;13.07;;;10.20;;
29954;SDS011;16812;51.168;6.840;2022-08-01T07:06:50;14.53;;;10.90;;
29954;SDS011;16812;51.168;6.840;2022-08-01T07:09:17;19.07;;;11.40;;
29954;SDS011;16812;51.168;6.840;2022-08-01T07:11:44;13.10;;;11.10;;
29954;SDS011;16812;51.168;6.840;2022-08-01T07:14:11;14.83;;;11.27;;
29954;SDS011;16812;51.168;6.840;2022-08-01T07:16:39;16.47;;;11.23;;
29954;SDS011;16812;51.168;6.840;2022-08-01T07:19:06;14.33;;;10.67;;
29954;SDS011;16812;51.168;6.840;2022-08-01T07:21:33;13.80;;;11.87;;
29954;SDS011;16812;51.168;6.840;2022-08-01T07:24:08;14.47;;;10.87;;
29954;SDS011;16812;51.168;6.840;2022-08-01T07:26:39;16.30;;;10.13;;
29954;SDS011;16812;51.168;6.840;2022-08-01T07:29:19;12.03;;;9.90;;
29954;SDS011;16812;51.168;6.840;2022-08-01T07:31:46;11.73;;;9.40;;
29954;SDS011;16812;51.168;6.840;2022-08-01T07:34:13;14.23;;;9.07;;
29954;SDS011;16812;51.168;6.840;2022-08-01T07:36:41;11.00;;;8.10;;
29954;SDS011;16812;51.168;6.840;2022-08-01T07:39:09;12.40;;;9.00;;
29954;SDS011;16812;51.168;6.840;2022-08-01T07:41:36;9.33;;;7.53;;
29954;SDS011;16812;51.168;6.840;2022-08-01T07:44:23;10.07;;;8.77;;
29954;SDS011;16812;51.168;6.840;2022-08-01T07:46:54;10.77;;;8.33;;
29954;SDS011;16812;51.168;6.840;2022-08-01T07:49:21;11.67;;;9.07;;
29954;SDS011;16812;51.168;6.840;2022-08-01T07:51:49;12.70;;;8.40;;
29954;SDS011;16812;51.168;6.840;2022-08-01T07:54:37;15.60;;;10.40;;
29954;SDS011;16812;51.168;6.840;2022-08-01T07:57:04;13.00;;;10.17;;
29954;SDS011;16812;51.168;6.840;2022-08-01T07:59:32;12.60;;;10.77;;
29954;SDS011;16812;51.168;6.840;2022-08-01T08:01:59;11.23;;;9.50;;
29954;SDS011;16812;51.168;6.840;2022-08-01T08:04:26;16.23;;;9.90;;
29954;SDS011;16812;51.168;6.840;2022-08-01T08:06:54;8.83;;;7.30;;
29954;SDS011;16812;51.168;6.840;2022-08-01T08:09:21;9.30;;;7.30;;
29954;SDS011;16812;51.168;6.840;2022-08-01T08:11:50;6.47;;;5.77;;
29954;SDS011;16812;51.168;6.840;2022-08-01T08:14:17;9.00;;;6.20;;
29954;SDS011;16812;51.168;6.840;2022-08-01T08:16:44;8.37;;;6.37;;
29954;SDS011;16812;51.168;6.840;2022-08-01T08:19:12;8.50;;;5.93;;
29954;SDS011;16812;51.168;6.840;2022-08-01T08:21:40;6.32;;;5.72;;
29954;SDS011;16812;51.168;6.840;2022-08-01T08:24:07;5.50;;;5.00;;
29954;SDS011;16812;51.168;6.840;2022-08-01T08:26:36;5.22;;;4.55;;
29954;SDS011;16812;51.168;6.840;2022-08-01T08:29:07;7.97;;;5.15;;
29954;SDS011;16812;51.168;6.840;2022-08-01T08:31:34;5.18;;;4.43;;
29954;SDS011;16812;51.168;6.840;2022-08-01T08:34:18;4.43;;;3.60;;
29954;SDS011;16812;51.168;6.840;2022-08-01T08:36:46;4.68;;;4.18;;
29954;SDS011;16812;51.168;6.840;2022-08-01T08:39:14;4.97;;;4.13;;
29954;SDS011;16812;51.168;6.840;2022-08-01T08:41:45;7.07;;;5.35;;
29954;SDS011;16812;51.168;6.840;2022-08-01T08:44:16;5.35;;;4.85;;
29954;SDS011;16812;51.168;6.840;2022-08-01T08:46:45;4.72;;;4.30;;
29954;SDS011;16812;51.168;6.840;2022-08-01T08:49:15;4.53;;;4.13;;
29954;SDS011;16812;51.168;6.840;2022-08-01T08:51:43;4.18;;;3.78;;
29954;SDS011;16812;51.168;6.840;2022-08-01T08:54:11;4.18;;;3.75;;
29954;SDS011;16812;51.168;6.840;2022-08-01T08:56:38;5.57;;;4.03;;
29954;SDS011;16812;51.168;6.840;2022-08-01T08:59:06;5.25;;;4.65;;
29954;SDS011;16812;51.168;6.840;2022-08-01T09:01:34;4.35;;;3.95;;
29954;SDS011;16812;51.168;6.840;2022-08-01T09:04:02;4.55;;;4.15;;
29954;SDS011;16812;51.168;6.840;2022-08-01T09:06:29;5.00;;;4.60;;
29954;SDS011;16812;51.168;6.840;2022-08-01T09:08:57;4.10;;;3.80;;
29954;SDS011;16812;51.168;6.840;2022-08-01T09:11:24;4.50;;;4.10;;
29954;SDS011;16812;51.168;6.840;2022-08-01T09:14:01;5.50;;;4.80;;
29954;SDS011;16812;51.168;6.840;2022-08-01T09:16:29;5.32;;;4.20;;
29954;SDS011;16812;51.168;6.840;2022-08-01T09:19:07;3.70;;;3.40;;
29954;SDS011;16812;51.168;6.840;2022-08-01T09:21:54;4.95;;;4.45;;
29954;SDS011;16812;51.168;6.840;2022-08-01T09:24:24;3.22;;;2.53;;
29954;SDS011;16812;51.168;6.840;2022-08-01T09:26:56;4.00;;;2.97;;
29954;SDS011;16812;51.168;6.840;2022-08-01T09:29:24;2.25;;;2.15;;
29954;SDS011;16812;51.168;6.840;2022-08-01T09:32:04;2.80;;;2.60;;
29954;SDS011;16812;51.168;6.840;2022-08-01T09:34:33;3.22;;;3.00;;
29954;SDS011;16812;51.168;6.840;2022-08-01T09:37:01;3.72;;;3.28;;
29954;SDS011;16812;51.168;6.840;2022-08-01T09:39:31;3.00;;;2.80;;
29954;SDS011;16812;51.168;6.840;2022-08-01T09:42:00;3.00;;;2.80;;
29954;SDS011;16812;51.168;6.840;2022-08-01T09:44:37;3.45;;;3.15;;
29954;SDS011;16812;51.168;6.840;2022-08-01T09:47:10;3.65;;;2.83;;
29954;SDS011;16812;51.168;6.840;2022-08-01T09:49:42;3.53;;;2.85;;
29954;SDS011;16812;51.168;6.840;2022-08-01T09:52:17;3.45;;;3.25;;
29954;SDS011;16812;51.168;6.840;2022-08-01T09:54:51;3.30;;;3.00;;
29954;SDS011;16812;51.168;6.840;2022-08-01T09:57:20;2.70;;;2.50;;
29954;SDS011;16812;51.168;6.840;2022-08-01T09:59:48;3.00;;;2.80;;
29954;SDS011;16812;51.168;6.840;2022-08-01T10:02:27;3.08;;;2.88;;
29954;SDS011;16812;51.168;6.840;2022-08-01T10:04:56;2.58;;;2.38;;
29954;SDS011;16812;51.168;6.840;2022-08-01T10:07:33;4.35;;;2.88;;
29954;SDS011;16812;51.168;6.840;2022-08-01T10:10:09;3.17;;;2.97;;
29954;SDS011;16812;51.168;6.840;2022-08-01T10:12:37;5.40;;;3.03;;
29954;SDS011;16812;51.168;6.840;2022-08-01T10:15:10;2.85;;;2.65;;
29954;SDS011;16812;51.168;6.840;2022-08-01T10:17:39;2.80;;;2.60;;
29954;SDS011;16812;51.168;6.840;2022-08-01T10:20:18;2.70;;;2.50;;
29954;SDS011;16812;51.168;6.840;2022-08-01T10:22:58;2.53;;;2.30;;
29954;SDS011;16812;51.168;6.840;2022-08-01T10:25:27;3.53;;;3.00;;
29954;SDS011;16812;51.168;6.840;2022-08-01T10:28:10;3.75;;;3.40;;
29954;SDS011;16812;51.168;6.840;2022-08-01T10:30:43;4.00;;;3.15;;
29954;SDS011;16812;51.168;6.840;2022-08-01T10:33:11;3.40;;;3.20;;
29954;SDS011;16812;51.168;6.840;2022-08-01T10:36:00;2.80;;;2.60;;
29954;SDS011;16812;51.168;6.840;2022-08-01T10:38:27;3.13;;;2.65;;
29954;SDS011;16812;51.168;6.840;2022-08-01T10:40:55;2.97;;;2.78;;
29954;SDS011;16812;51.168;6.840;2022-08-01T10:43:24;3.40;;;2.95;;
29954;SDS011;16812;51.168;6.840;2022-08-01T10:45:51;2.72;;;2.53;;
29954;SDS011;16812;51.168;6.840;2022-08-01T10:48:22;2.65;;;2.40;;
29954;SDS011;16812;51.168;6.840;2022-08-01T10:50:55;4.05;;;3.00;;
29954;SDS011;16812;51.168;6.840;2022-08-01T10:53:26;3.67;;;2.83;;
29954;SDS011;16812;51.168;6.840;2022-08-01T10:56:08;2.25;;;2.05;;
29954;SDS011;16812;51.168;6.840;2022-08-01T10:58:38;2.70;;;2.50;;
29954;SDS011;16812;51.168;6.840;2022-08-01T11:01:13;3.53;;;3.20;;
29954;SDS011;16812;51.168;6.840;2022-08-01T11:03:41;2.22;;;2.03;;
29954;SDS011;16812;51.168;6.840;2022-08-01T11:06:24;1.73;;;1.63;;
29954;SDS011;16812;51.168;6.840;2022-08-01T11:08:54;2.20;;;2.00;;
29954;SDS011;16812;51.168;6.840;2022-08-01T11:11:21;2.97;;;1.98;;
29954;SDS011;16812;51.168;6.840;2022-08-01T11:14:01;2.50;;;2.30;;
29954;SDS011;16812;51.168;6.840;2022-08-01T11:16:29;4.13;;;2.30;;
29954;SDS011;16812;51.168;6.840;2022-08-01T11:18:57;2.28;;;2.00;;
29954;SDS011;16812;51.168;6.840;2022-08-01T11:27:16;4.28;;;2.10;;
29954;SDS011;16812;51.168;6.840;2022-08-01T11:32:38;2.35;;;2.10;;
29954;SDS011;16812;51.168;6.840;2022-08-01T11:35:32;2.17;;;1.92;;
29954;SDS011;16812;51.168;6.840;2022-08-01T11:40:41;1.65;;;1.55;;
29954;SDS011;16812;51.168;6.840;2022-08-01T11:43:19;2.30;;;2.08;;
29954;SDS011;16812;51.168;6.840;2022-08-01T11:45:46;2.55;;;2.35;;
29954;SDS011;16812;51.168;6.840;2022-08-01T11:48:17;4.20;;;1.90;;
29954;SDS011;16812;51.168;6.840;2022-08-01T11:50:44;2.60;;;1.75;;
29954;SDS011;16812;51.168;6.840;2022-08-01T11:53:12;2.15;;;1.70;;
29954;SDS011;16812;51.168;6.840;2022-08-01T11:55:43;1.60;;;1.50;;
29954;SDS011;16812;51.168;6.840;2022-08-01T11:58:20;1.95;;;1.85;;
29954;SDS011;16812;51.168;6.840;2022-08-01T12:00:58;1.83;;;1.40;;
29954;SDS011;16812;51.168;6.840;2022-08-01T12:03:25;1.70;;;1.60;;
29954;SDS011;16812;51.168;6.840;2022-08-01T12:05:59;1.58;;;1.40;;
29954;SDS011;16812;51.168;6.840;2022-08-01T12:08:26;2.40;;;1.70;;
29954;SDS011;16812;51.168;6.840;2022-08-01T12:10:54;2.40;;;1.55;;
29954;SDS011;16812;51.168;6.840;2022-08-01T12:13:27;1.70;;;1.60;;
29954;SDS011;16812;51.168;6.840;2022-08-01T12:15:55;1.90;;;1.53;;
29954;SDS011;16812;51.168;6.840;2022-08-01T12:18:23;2.93;;;1.70;;
29954;SDS011;16812;51.168;6.840;2022-08-01T12:20:51;1.80;;;1.70;;
29954;SDS011;16812;51.168;6.840;2022-08-01T12:23:22;2.17;;;1.90;;
29954;SDS011;16812;51.168;6.840;2022-08-01T12:25:50;2.57;;;1.97;;
29954;SDS011;16812;51.168;6.840;2022-08-01T12:28:18;2.47;;;1.90;;
29954;SDS011;16812;51.168;6.840;2022-08-01T12:30:46;2.30;;;1.70;;
29954;SDS011;16812;51.168;6.840;2022-08-01T12:33:16;1.97;;;1.77;;
29954;SDS011;16812;51.168;6.840;2022-08-01T12:35:45;2.53;;;1.80;;
29954;SDS011;16812;51.168;6.840;2022-08-01T12:38:14;2.93;;;1.97;;
29954;SDS011;16812;51.168;6.840;2022-08-01T12:40:41;1.63;;;1.50;;
29954;SDS011;16812;51.168;6.840;2022-08-01T12:43:15;3.13;;;2.07;;
29954;SDS011;16812;51.168;6.840;2022-08-01T12:45:54;1.60;;;1.50;;
29954;SDS011;16812;51.168;6.840;2022-08-01T12:48:23;1.50;;;1.40;;
29954;SDS011;16812;51.168;6.840;2022-08-01T12:50:52;4.80;;;1.83;;
29954;SDS011;16812;51.168;6.840;2022-08-01T12:53:20;2.03;;;1.53;;
29954;SDS011;16812;51.168;6.840;2022-08-01T12:55:48;1.50;;;1.40;;
29954;SDS011;16812;51.168;6.840;2022-08-01T12:58:29;2.23;;;2.00;;
29954;SDS011;16812;51.168;6.840;2022-08-01T13:01:02;1.53;;;1.40;;
29954;SDS011;16812;51.168;6.840;2022-08-01T13:03:29;3.63;;;1.83;;
29954;SDS011;16812;51.168;6.840;2022-08-01T13:05:58;2.00;;;1.77;;
29954;SDS011;16812;51.168;6.840;2022-08-01T13:08:29;2.60;;;1.70;;
29954;SDS011;16812;51.168;6.840;2022-08-01T13:11:00;1.73;;;1.60;;
29954;SDS011;16812;51.168;6.840;2022-08-01T13:13:36;1.60;;;1.50;;
29954;SDS011;16812;51.168;6.840;2022-08-01T13:16:04;2.13;;;1.77;;
29954;SDS011;16812;51.168;6.840;2022-08-01T13:18:34;2.80;;;1.93;;
29954;SDS011;16812;51.168;6.840;2022-08-01T13:21:10;1.80;;;1.70;;
29954;SDS011;16812;51.168;6.840;2022-08-01T13:23:37;3.10;;;1.90;;
29954;SDS011;16812;51.168;6.840;2022-08-01T13:26:36;2.70;;;2.23;;
29954;SDS011;16812;51.168;6.840;2022-08-01T13:29:04;1.60;;;1.50;;
29954;SDS011;16812;51.168;6.840;2022-08-01T13:31:32;2.30;;;2.03;;
29954;SDS011;16812;51.168;6.840;2022-08-01T13:33:59;2.20;;;1.60;;
29954;SDS011;16812;51.168;6.840;2022-08-01T13:36:28;2.60;;;1.80;;
29954;SDS011;16812;51.168;6.840;2022-08-01T13:38:55;2.03;;;1.90;;
29954;SDS011;16812;51.168;6.840;2022-08-01T13:41:22;3.30;;;1.83;;
29954;SDS011;16812;51.168;6.840;2022-08-01T13:43:49;2.03;;;1.73;;
29954;SDS011;16812;51.168;6.840;2022-08-01T13:46:25;2.03;;;1.83;;
29954;SDS011;16812;51.168;6.840;2022-08-01T13:48:54;2.17;;;1.97;;
29954;SDS011;16812;51.168;6.840;2022-08-01T13:51:22;2.03;;;1.93;;
29954;SDS011;16812;51.168;6.840;2022-08-01T13:53:50;2.83;;;1.70;;
29954;SDS011;16812;51.168;6.840;2022-08-01T13:56:17;2.30;;;2.10;;
29954;SDS011;16812;51.168;6.840;2022-08-01T13:58:45;2.73;;;2.13;;
29954;SDS011;16812;51.168;6.840;2022-08-01T14:01:12;1.80;;;1.70;;
29954;SDS011;16812;51.168;6.840;2022-08-01T14:03:40;2.40;;;1.70;;
29954;SDS011;16812;51.168;6.840;2022-08-01T14:06:07;2.00;;;1.90;;
29954;SDS011;16812;51.168;6.840;2022-08-01T14:08:34;5.50;;;2.07;;
29954;SDS011;16812;51.168;6.840;2022-08-01T14:11:03;2.10;;;1.90;;
29954;SDS011;16812;51.168;6.840;2022-08-01T14:13:32;3.53;;;2.10;;
29954;SDS011;16812;51.168;6.840;2022-08-01T14:16:02;2.53;;;1.63;;
29954;SDS011;16812;51.168;6.840;2022-08-01T14:18:29;1.93;;;1.83;;
29954;SDS011;16812;51.168;6.840;2022-08-01T14:20:56;2.47;;;1.80;;
29954;SDS011;16812;51.168;6.840;2022-08-01T14:23:31;2.63;;;2.13;;
29954;SDS011;16812;51.168;6.840;2022-08-01T14:25:58;2.70;;;1.47;;
29954;SDS011;16812;51.168;6.840;2022-08-01T14:28:33;2.27;;;2.07;;
29954;SDS011;16812;51.168;6.840;2022-08-01T14:31:00;2.13;;;1.93;;
29954;SDS011;16812;51.168;6.840;2022-08-01T14:33:28;3.00;;;2.20;;
29954;SDS011;16812;51.168;6.840;2022-08-01T14:35:55;5.60;;;2.40;;
29954;SDS011;16812;51.168;6.840;2022-08-01T14:38:42;2.00;;;1.73;;
29954;SDS011;16812;51.168;6.840;2022-08-01T14:41:12;2.10;;;1.90;;
29954;SDS011;16812;51.168;6.840;2022-08-01T14:43:40;6.53;;;2.00;;
29954;SDS011;16812;51.168;6.840;2022-08-01T14:46:07;3.17;;;2.10;;
29954;SDS011;16812;51.168;6.840;2022-08-01T14:48:35;3.13;;;2.60;;
29954;SDS011;16812;51.168;6.840;2022-08-01T14:51:02;2.63;;;2.13;;
29954;SDS011;16812;51.168;6.840;2022-08-01T14:53:29;4.33;;;2.40;;
29954;SDS011;16812;51.168;6.840;2022-08-01T14:55:59;6.03;;;2.50;;
29954;SDS011;16812;51.168;6.840;2022-08-01T14:58:26;3.30;;;2.40;;
29954;SDS011;16812;51.168;6.840;2022-08-01T15:00:55;3.23;;;2.87;;
29954;SDS011;16812;51.168;6.840;2022-08-01T15:03:24;2.97;;;2.53;;
29954;SDS011;16812;51.168;6.840;2022-08-01T15:05:52;5.43;;;2.33;;
29954;SDS011;16812;51.168;6.840;2022-08-01T15:08:19;2.63;;;2.30;;